createdAt,value
2023-02-11T00:00:17.415Z,103285.78
2023-02-11T00:02:46.120Z,103286.69
2023-02-11T00:05:14.307Z,103288.47
2023-02-11T00:07:40.770Z,103286.66
2023-02-11T00:10:07.961Z,103285.84
2023-02-11T00:12:35.812Z,103285.84
2023-02-11T00:15:02.654Z,103285.88
2023-02-11T00:17:29.108Z,103294.78
2023-02-11T00:19:55.549Z,103288.47
2023-02-11T00:22:22.013Z,103302.78
2023-02-11T00:24:48.579Z,103299.28
2023-02-11T00:27:15.115Z,103303.72
2023-02-11T00:29:41.522Z,103297.47
2023-02-11T00:32:08.939Z,103279.56
2023-02-11T00:34:36.648Z,103282.25
2023-02-11T00:37:03.344Z,103277.78
2023-02-11T00:39:29.875Z,103284.03
2023-02-11T00:41:56.446Z,103278.66
2023-02-11T00:44:22.904Z,103273.25
2023-02-11T00:46:49.263Z,103274.25
2023-02-11T00:49:16.000Z,103280.50
2023-02-11T00:51:42.372Z,103283.38
2023-02-11T00:54:08.837Z,103285.19
2023-02-11T00:56:35.331Z,103279.88
2023-02-11T00:59:01.829Z,103282.66
2023-02-11T01:01:28.245Z,103287.19
2023-02-11T01:03:54.649Z,103296.22
2023-02-11T01:06:21.137Z,103290.81
2023-02-11T01:08:47.564Z,103297.16
2023-02-11T01:11:17.655Z,103286.41
2023-02-11T01:13:44.438Z,103283.78
2023-02-11T01:16:11.779Z,103282.97
2023-02-11T01:18:38.630Z,103274.03
2023-02-11T01:21:05.325Z,103274.06
2023-02-11T01:23:32.196Z,103274.06
2023-02-11T01:25:58.782Z,103274.03
2023-02-11T01:28:28.258Z,103277.63
2023-02-11T01:30:55.609Z,103274.06
2023-02-11T01:33:23.317Z,103274.06
2023-02-11T01:35:50.634Z,103262.44
2023-02-11T01:38:23.363Z,103261.56
2023-02-11T01:41:03.061Z,103262.44
2023-02-11T01:43:33.735Z,103271.38
2023-02-11T01:46:19.001Z,103278.53
2023-02-11T01:48:51.175Z,103282.09
2023-02-11T01:51:49.400Z,103279.47
2023-02-11T01:54:39.506Z,103268.78
2023-02-11T01:57:22.881Z,103268.81
2023-02-11T01:59:55.217Z,103274.09
2023-02-11T02:02:26.451Z,103272.38
2023-02-11T02:05:03.513Z,103264.28
2023-02-11T02:07:45.938Z,103259.88
2023-02-11T02:10:19.130Z,103267.94
2023-02-11T02:12:45.581Z,103260.81
2023-02-11T02:15:19.715Z,103259.03
2023-02-11T02:17:57.035Z,103259.94
2023-02-11T02:20:36.581Z,103260.81
2023-02-11T02:23:33.250Z,103259.03
2023-02-11T02:26:11.638Z,103267.97
2023-02-11T02:29:22.807Z,103255.44
2023-02-11T02:32:17.080Z,103259.94
2023-02-11T02:35:09.590Z,103242.97
2023-02-11T02:37:42.039Z,103247.44
2023-02-11T02:40:15.592Z,103250.13
2023-02-11T02:42:43.888Z,103251.88
2023-02-11T02:45:12.720Z,103255.44
2023-02-11T02:47:39.369Z,103268.00
2023-02-11T02:50:08.289Z,103274.25
2023-02-11T02:53:08.893Z,103251.91
2023-02-11T02:56:15.936Z,103256.41
2023-02-11T02:59:03.540Z,103263.56
2023-02-11T03:01:50.147Z,103252.91
2023-02-11T03:04:30.884Z,103253.81
2023-02-11T03:07:14.164Z,103248.44
2023-02-11T03:09:46.886Z,103246.66
2023-02-11T03:12:14.546Z,103246.63
2023-02-11T03:14:42.127Z,103245.75
2023-02-11T03:17:10.319Z,103253.78
2023-02-11T03:19:41.139Z,103257.34
2023-02-11T03:22:14.503Z,103245.75
2023-02-11T03:24:41.788Z,103238.59
2023-02-11T03:27:20.407Z,103239.47
2023-02-11T03:30:26.199Z,103232.31
2023-02-11T03:32:59.949Z,103237.66
2023-02-11T03:35:35.935Z,103240.34
2023-02-11T03:38:07.774Z,103242.13
2023-02-11T03:40:40.302Z,103243.91
2023-02-11T03:43:09.752Z,103239.47
2023-02-11T03:45:38.303Z,103247.53
2023-02-11T03:48:25.756Z,103242.22
2023-02-11T03:50:54.481Z,103241.28
2023-02-11T03:53:22.655Z,103229.69
2023-02-11T03:55:51.205Z,103235.97
2023-02-11T03:58:17.825Z,103226.16
2023-02-11T04:00:44.770Z,103216.34
2023-02-11T04:03:12.909Z,103211.84
2023-02-11T04:05:39.925Z,103213.66
2023-02-11T04:08:07.413Z,103213.66
2023-02-11T04:10:33.832Z,103214.56
2023-02-11T04:13:00.230Z,103211.88
2023-02-11T04:15:26.753Z,103221.66
2023-02-11T04:17:53.186Z,103210.06
2023-02-11T04:20:19.670Z,103215.38
2023-02-11T04:22:46.140Z,103214.47
2023-02-11T04:25:12.597Z,103220.72
2023-02-11T04:27:39.067Z,103227.84
2023-02-11T04:30:07.087Z,103217.97
2023-02-11T04:32:33.543Z,103221.59
2023-02-11T04:35:00.144Z,103216.22
2023-02-11T04:37:26.539Z,103217.09
2023-02-11T04:39:52.967Z,103224.28
2023-02-11T04:42:19.387Z,103221.63
2023-02-11T04:44:45.890Z,103231.47
2023-02-11T04:47:15.486Z,103230.56
2023-02-11T04:49:42.167Z,103236.81
2023-02-11T04:52:09.446Z,103235.94
2023-02-11T04:54:35.890Z,103239.53
2023-02-11T04:57:02.727Z,103239.53
2023-02-11T04:59:29.421Z,103242.22
2023-02-11T05:01:55.989Z,103241.28
2023-02-11T05:04:22.481Z,103244.00
2023-02-11T05:06:49.025Z,103250.25
2023-02-11T05:09:15.651Z,103250.22
2023-02-11T05:11:42.498Z,103244.91
2023-02-11T05:14:09.075Z,103250.28
2023-02-11T05:16:35.536Z,103253.84
2023-02-11T05:19:01.991Z,103257.44
2023-02-11T05:21:28.519Z,103261.03
2023-02-11T05:23:54.963Z,103264.59
2023-02-11T05:26:21.492Z,103257.47
2023-02-11T05:28:47.887Z,103261.03
2023-02-11T05:31:14.707Z,103257.47
2023-02-11T05:33:41.816Z,103261.97
2023-02-11T05:36:11.172Z,103265.53
2023-02-11T05:38:38.365Z,103256.59
2023-02-11T05:41:06.683Z,103270.88
2023-02-11T05:43:35.233Z,103270.88
2023-02-11T05:46:02.201Z,103269.09
2023-02-11T05:48:28.652Z,103271.78
2023-02-11T05:50:55.107Z,103266.44
2023-02-11T05:53:22.368Z,103272.66
2023-02-11T05:55:49.185Z,103282.50
2023-02-11T05:58:15.774Z,103271.78
2023-02-11T06:00:42.366Z,103266.44
2023-02-11T06:03:08.795Z,103262.84
2023-02-11T06:05:35.211Z,103253.94
2023-02-11T06:08:01.660Z,103262.84
2023-02-11T06:10:28.088Z,103259.25
2023-02-11T06:12:54.515Z,103248.53
2023-02-11T06:15:21.025Z,103253.94
2023-02-11T06:17:47.454Z,103259.25
2023-02-11T06:20:14.145Z,103248.56
2023-02-11T06:22:40.579Z,103261.06
2023-02-11T06:25:07.103Z,103255.69
2023-02-11T06:27:33.537Z,103259.28
2023-02-11T06:30:00.041Z,103259.25
2023-02-11T06:32:45.388Z,103259.22
2023-02-11T06:35:14.121Z,103263.66
2023-02-11T06:37:41.282Z,103261.00
2023-02-11T06:40:08.537Z,103263.66
2023-02-11T06:42:36.098Z,103269.06
2023-02-11T06:45:02.952Z,103262.78
2023-02-11T06:47:29.418Z,103263.66
2023-02-11T06:49:55.844Z,103269.03
2023-02-11T06:52:22.408Z,103264.59
2023-02-11T06:54:48.818Z,103268.13
2023-02-11T06:57:15.274Z,103262.75
2023-02-11T06:59:41.719Z,103253.84
2023-02-11T07:02:10.241Z,103260.97
2023-02-11T07:04:36.750Z,103264.53
2023-02-11T07:07:03.297Z,103265.44
2023-02-11T07:09:29.801Z,103270.78
2023-02-11T07:11:56.248Z,103275.28
2023-02-11T07:14:22.666Z,103278.84
2023-02-11T07:16:49.185Z,103275.22
2023-02-11T07:19:15.909Z,103274.34
2023-02-11T07:21:42.405Z,103274.31
2023-02-11T07:24:11.243Z,103273.41
2023-02-11T07:26:38.092Z,103276.94
2023-02-11T07:29:04.882Z,103280.50
2023-02-11T07:31:32.084Z,103276.91
2023-02-11T07:34:01.178Z,103270.63
2023-02-11T07:36:30.095Z,103280.41
2023-02-11T07:38:56.627Z,103280.38
2023-02-11T07:41:25.020Z,103279.47
2023-02-11T07:43:52.196Z,103284.81
2023-02-11T07:46:21.520Z,103289.28
2023-02-11T07:48:48.319Z,103286.56
2023-02-11T07:51:26.932Z,103285.63
2023-02-11T07:53:53.542Z,103283.81
2023-02-11T07:56:21.420Z,103294.56
2023-02-11T07:58:48.800Z,103297.19
2023-02-11T08:01:18.972Z,103294.50
2023-02-11T08:03:45.828Z,103307.88
2023-02-11T08:06:14.340Z,103306.94
2023-02-11T08:08:41.356Z,103319.41
2023-02-11T08:11:09.248Z,103317.59
2023-02-11T08:13:36.499Z,103322.97
2023-02-11T08:16:03.983Z,103327.41
2023-02-11T08:18:30.919Z,103318.41
2023-02-11T08:20:57.341Z,103327.34
2023-02-11T08:23:24.426Z,103328.22
2023-02-11T08:25:50.858Z,103322.84
2023-02-11T08:28:17.254Z,103331.75
2023-02-11T08:30:43.702Z,103334.38
2023-02-11T08:33:10.182Z,103333.44
2023-02-11T08:35:38.817Z,103345.94
2023-02-11T08:38:05.301Z,103345.03
2023-02-11T08:40:31.709Z,103338.72
2023-02-11T08:42:58.092Z,103340.44
2023-02-11T08:45:24.546Z,103338.63
2023-02-11T08:47:51.008Z,103341.28
2023-02-11T08:50:17.413Z,103341.25
2023-02-11T08:52:44.543Z,103340.31
2023-02-11T08:55:11.422Z,103338.44
2023-02-11T08:57:37.807Z,103341.13
2023-02-11T09:00:05.043Z,103339.31
2023-02-11T09:02:31.488Z,103353.56
2023-02-11T09:04:57.945Z,103354.44
2023-02-11T09:07:24.360Z,103354.38
2023-02-11T09:09:50.721Z,103348.97
2023-02-11T09:12:17.162Z,103354.28
2023-02-11T09:14:43.701Z,103356.00
2023-02-11T09:17:10.329Z,103361.25
2023-02-11T09:19:36.896Z,103371.06
2023-02-11T09:22:03.271Z,103370.03
2023-02-11T09:24:29.703Z,103382.38
2023-02-11T09:26:56.085Z,103376.97
2023-02-11T09:29:22.440Z,103386.06
2023-02-11T09:31:49.813Z,103387.09
2023-02-11T09:34:16.358Z,103398.72
2023-02-11T09:36:42.974Z,103405.69
2023-02-11T09:39:13.349Z,103399.84
2023-02-11T09:41:56.214Z,103396.25
2023-02-11T09:44:26.044Z,103390.50
2023-02-11T09:46:59.680Z,103405.94
2023-02-11T09:49:34.486Z,103409.84
2023-02-11T09:52:22.157Z,103402.41
2023-02-11T09:54:54.104Z,103406.97
2023-02-11T09:57:28.720Z,103412.16
2023-02-11T09:59:56.654Z,103409.72
2023-02-11T10:02:37.947Z,103413.47
2023-02-11T10:05:21.268Z,103414.00
2023-02-11T10:08:18.588Z,103410.44
2023-02-11T10:10:52.785Z,103415.34
2023-02-11T10:13:52.431Z,103429.03
2023-02-11T10:16:25.395Z,103430.44
2023-02-11T10:18:54.786Z,103435.19
2023-02-11T10:21:56.283Z,103440.47
2023-02-11T10:24:23.295Z,103445.72
2023-02-11T10:26:51.755Z,103450.16
2023-02-11T10:29:36.715Z,103446.63
2023-02-11T10:32:13.602Z,103445.84
2023-02-11T10:34:41.508Z,103449.66
2023-02-11T10:37:12.883Z,103461.44
2023-02-11T10:39:41.091Z,103465.16
2023-02-11T10:42:13.023Z,103472.28
2023-02-11T10:44:46.078Z,103467.72
2023-02-11T10:47:24.028Z,103465.88
2023-02-11T10:49:50.589Z,103457.28
2023-02-11T10:52:21.337Z,103469.72
2023-02-11T10:54:58.029Z,103465.03
2023-02-11T10:57:46.783Z,103466.00
2023-02-11T11:00:40.333Z,103460.84
2023-02-11T11:03:22.778Z,103466.75
2023-02-11T11:05:50.651Z,103457.75
2023-02-11T11:08:18.457Z,103458.63
2023-02-11T11:11:09.477Z,103458.63
2023-02-11T11:13:38.486Z,103470.16
2023-02-11T11:16:13.694Z,103470.13
2023-02-11T11:18:41.999Z,103476.53
2023-02-11T11:21:16.438Z,103475.44
2023-02-11T11:23:50.090Z,103482.66
2023-02-11T11:26:17.359Z,103469.94
2023-02-11T11:28:46.842Z,103476.16
2023-02-11T11:31:27.156Z,103476.03
2023-02-11T11:33:56.556Z,103470.44
2023-02-11T11:36:32.479Z,103464.91
2023-02-11T11:39:03.439Z,103459.91
2023-02-11T11:41:33.730Z,103459.31
2023-02-11T11:44:27.043Z,103467.41
2023-02-11T11:47:11.974Z,103477.66
2023-02-11T11:50:01.446Z,103477.38
2023-02-11T11:52:56.374Z,103472.16
2023-02-11T11:55:27.360Z,103479.53
2023-02-11T11:57:53.872Z,103486.38
2023-02-11T12:00:37.657Z,103485.00
2023-02-11T12:03:06.935Z,103482.56
2023-02-11T12:05:41.997Z,103490.91
2023-02-11T12:08:25.262Z,103488.25
2023-02-11T12:11:05.028Z,103489.81
2023-02-11T12:13:46.460Z,103485.59
2023-02-11T12:16:39.473Z,103496.38
2023-02-11T12:19:38.185Z,103503.59
2023-02-11T12:22:10.852Z,103494.78
2023-02-11T12:24:55.296Z,103491.97
2023-02-11T12:27:52.692Z,103494.47
2023-02-11T12:30:46.323Z,103496.06
2023-02-11T12:33:37.131Z,103496.97
2023-02-11T12:36:22.240Z,103486.97
2023-02-11T12:39:10.083Z,103496.94
2023-02-11T12:42:23.979Z,103486.56
2023-02-11T12:45:11.981Z,103482.16
2023-02-11T12:48:10.629Z,103487.69
2023-02-11T12:50:57.425Z,103486.78
2023-02-11T12:53:45.392Z,103488.72
2023-02-11T12:56:24.214Z,103495.91
2023-02-11T12:58:55.368Z,103498.63
2023-02-11T13:01:30.464Z,103489.69
2023-02-11T13:04:05.990Z,103494.22
2023-02-11T13:06:54.443Z,103486.97
2023-02-11T13:09:26.603Z,103495.09
2023-02-11T13:11:55.975Z,103496.94
2023-02-11T13:14:29.050Z,103491.81
2023-02-11T13:16:58.264Z,103480.97
2023-02-11T13:19:33.872Z,103490.91
2023-02-11T13:22:13.386Z,103483.97
2023-02-11T13:25:11.195Z,103487.63
2023-02-11T13:27:59.275Z,103497.63
2023-02-11T13:30:32.997Z,103499.41
2023-02-11T13:33:02.173Z,103498.59
2023-02-11T13:35:39.407Z,103504.03
2023-02-11T13:38:24.448Z,103503.19
2023-02-11T13:41:22.293Z,103500.56
2023-02-11T13:43:59.602Z,103501.47
2023-02-11T13:46:29.097Z,103494.25
2023-02-11T13:48:56.693Z,103493.38
2023-02-11T13:51:40.183Z,103491.63
2023-02-11T13:54:08.355Z,103493.41
2023-02-11T13:56:37.567Z,103499.84
2023-02-11T13:59:27.352Z,103502.63
2023-02-11T14:02:12.553Z,103497.25
2023-02-11T14:05:22.923Z,103499.88
2023-02-11T14:08:26.538Z,103502.56
2023-02-11T14:10:58.504Z,103495.44
2023-02-11T14:13:28.860Z,103489.94
2023-02-11T14:16:20.392Z,103482.94
2023-02-11T14:18:54.674Z,103492.84
2023-02-11T14:21:27.259Z,103487.44
2023-02-11T14:24:14.470Z,103491.09
2023-02-11T14:26:56.086Z,103490.22
2023-02-11T14:29:36.798Z,103496.50
2023-02-11T14:32:09.343Z,103492.06
2023-02-11T14:35:10.561Z,103499.31
2023-02-11T14:38:02.833Z,103522.69
2023-02-11T14:40:33.606Z,103520.06
2023-02-11T14:43:13.439Z,103521.91
2023-02-11T14:45:40.450Z,103525.50
2023-02-11T14:48:18.158Z,103521.03
2023-02-11T14:51:11.260Z,103517.47
2023-02-11T14:53:43.865Z,103513.00
2023-02-11T14:56:34.392Z,103512.22
2023-02-11T14:59:02.696Z,103508.63
2023-02-11T15:01:32.566Z,103520.31
2023-02-11T15:04:00.920Z,103524.84
2023-02-11T15:06:38.236Z,103525.72
2023-02-11T15:09:27.824Z,103524.84
2023-02-11T15:11:55.663Z,103530.22
2023-02-11T15:14:31.824Z,103537.50
2023-02-11T15:17:01.143Z,103524.06
2023-02-11T15:19:34.516Z,103529.44
2023-02-11T15:22:04.176Z,103526.81
2023-02-11T15:24:32.743Z,103532.22
2023-02-11T15:27:08.396Z,103541.25
2023-02-11T15:29:40.858Z,103543.06
2023-02-11T15:32:17.237Z,103545.78
2023-02-11T15:34:45.451Z,103551.28
2023-02-11T15:37:30.216Z,103551.31
2023-02-11T15:40:07.892Z,103552.22
2023-02-11T15:42:50.742Z,103546.03
2023-02-11T15:45:28.822Z,103536.22
2023-02-11T15:48:15.446Z,103543.34
2023-02-11T15:50:48.787Z,103544.38
2023-02-11T15:53:24.397Z,103537.25
2023-02-11T15:55:54.177Z,103540.88
2023-02-11T15:58:22.773Z,103544.50
2023-02-11T16:00:59.580Z,103548.16
2023-02-11T16:03:32.260Z,103553.53
2023-02-11T16:06:23.159Z,103545.47
2023-02-11T16:09:20.086Z,103541.03
2023-02-11T16:11:46.416Z,103547.38
2023-02-11T16:14:27.929Z,103557.25
2023-02-11T16:16:58.059Z,103548.38
2023-02-11T16:19:26.471Z,103548.44
2023-02-11T16:21:55.438Z,103555.63
2023-02-11T16:24:31.143Z,103556.50
2023-02-11T16:27:01.148Z,103561.94
2023-02-11T16:29:33.227Z,103561.09
2023-02-11T16:32:15.576Z,103555.75
2023-02-11T16:34:41.987Z,103564.69
2023-02-11T16:37:08.470Z,103573.69
2023-02-11T16:39:34.966Z,103576.41
2023-02-11T16:42:02.044Z,103572.84
2023-02-11T16:44:29.057Z,103571.06
2023-02-11T16:46:59.435Z,103576.47
2023-02-11T16:49:29.042Z,103573.81
2023-02-11T16:52:01.028Z,103568.44
2023-02-11T16:54:29.199Z,103568.50
2023-02-11T16:56:56.639Z,103568.53
2023-02-11T16:59:23.323Z,103578.41
2023-02-11T17:01:51.971Z,103579.31
2023-02-11T17:04:31.099Z,103581.16
2023-02-11T17:06:58.675Z,103582.97
2023-02-11T17:09:30.247Z,103581.16
2023-02-11T17:11:57.597Z,103588.34
2023-02-11T17:14:24.156Z,103586.56
2023-02-11T17:16:50.919Z,103596.41
2023-02-11T17:19:22.132Z,103595.50
2023-02-11T17:21:51.105Z,103596.41
2023-02-11T17:24:18.307Z,103598.19
2023-02-11T17:26:46.139Z,103600.00
2023-02-11T17:29:15.770Z,103601.78
2023-02-11T17:31:42.332Z,103606.28
2023-02-11T17:34:09.315Z,103613.44
2023-02-11T17:36:36.520Z,103611.69
2023-02-11T17:39:06.396Z,103602.69
2023-02-11T17:41:34.834Z,103612.56
2023-02-11T17:44:01.385Z,103610.81
2023-02-11T17:46:32.030Z,103609.03
2023-02-11T17:48:59.548Z,103614.41
2023-02-11T17:51:32.006Z,103623.38
2023-02-11T17:54:03.827Z,103622.47
2023-02-11T17:56:32.783Z,103635.91
2023-02-11T17:58:59.177Z,103635.91
2023-02-11T18:01:30.888Z,103638.59
2023-02-11T18:03:57.757Z,103643.09
2023-02-11T18:06:24.499Z,103646.66
2023-02-11T18:08:51.018Z,103652.03
2023-02-11T18:11:17.547Z,103655.63
2023-02-11T18:13:45.288Z,103662.78
2023-02-11T18:16:15.737Z,103661.91
2023-02-11T18:18:43.286Z,103668.16
2023-02-11T18:21:14.788Z,103669.97
2023-02-11T18:23:41.451Z,103669.97
2023-02-11T18:26:08.856Z,103665.47
2023-02-11T18:28:35.327Z,103669.94
2023-02-11T18:31:02.825Z,103668.16
2023-02-11T18:33:30.342Z,103671.72
2023-02-11T18:35:57.104Z,103675.34
2023-02-11T18:38:24.545Z,103683.34
2023-02-11T18:40:52.393Z,103674.41
2023-02-11T18:43:20.390Z,103675.31
2023-02-11T18:45:47.975Z,103675.31
2023-02-11T18:48:15.072Z,103671.75
2023-02-11T18:50:45.585Z,103681.63
2023-02-11T18:53:13.975Z,103675.34
2023-02-11T18:55:42.217Z,103675.34
2023-02-11T18:58:09.395Z,103680.75
2023-02-11T19:00:38.569Z,103678.06
2023-02-11T19:03:05.018Z,103680.75
2023-02-11T19:05:33.500Z,103675.38
2023-02-11T19:08:00.724Z,103674.50
2023-02-11T19:10:27.976Z,103684.34
2023-02-11T19:12:56.313Z,103686.13
2023-02-11T19:15:23.223Z,103687.94
2023-02-11T19:17:49.763Z,103692.41
2023-02-11T19:20:16.600Z,103693.31
2023-02-11T19:22:43.106Z,103698.69
2023-02-11T19:25:09.580Z,103704.06
2023-02-11T19:27:36.007Z,103705.84
2023-02-11T19:30:02.525Z,103719.28
2023-02-11T19:32:29.041Z,103705.88
2023-02-11T19:34:55.407Z,103710.34
2023-02-11T19:37:21.875Z,103713.03
2023-02-11T19:39:48.407Z,103718.41
2023-02-11T19:42:14.848Z,103724.66
2023-02-11T19:44:41.324Z,103730.03
2023-02-11T19:47:07.867Z,103727.34
2023-02-11T19:49:34.347Z,103739.00
2023-02-11T19:52:00.880Z,103736.31
2023-02-11T19:54:29.138Z,103741.69
2023-02-11T19:56:56.147Z,103730.94
2023-02-11T19:59:22.719Z,103734.53
2023-02-11T20:01:49.320Z,103724.66
2023-02-11T20:04:16.749Z,103734.53
2023-02-11T20:06:43.573Z,103742.56
2023-02-11T20:09:13.216Z,103742.59
2023-02-11T20:11:40.127Z,103736.34
2023-02-11T20:14:06.843Z,103740.81
2023-02-11T20:16:47.494Z,103739.91
2023-02-11T20:19:18.267Z,103741.69
2023-02-11T20:21:47.098Z,103736.28
2023-02-11T20:24:14.241Z,103730.06
2023-02-11T20:26:42.332Z,103738.94
2023-02-11T20:29:09.329Z,103744.31
2023-02-11T20:31:36.162Z,103739.78
2023-02-11T20:34:02.801Z,103745.16
2023-02-11T20:36:32.492Z,103752.31
2023-02-11T20:38:59.856Z,103754.06
2023-02-11T20:41:30.820Z,103754.94
2023-02-11T20:44:01.309Z,103755.81
2023-02-11T20:46:30.256Z,103751.31
2023-02-11T20:48:57.538Z,103747.72
2023-02-11T20:51:27.305Z,103749.47
2023-02-11T20:53:54.282Z,103745.88
2023-02-11T20:56:27.328Z,103741.38
2023-02-11T20:58:53.730Z,103739.56
2023-02-11T21:01:23.355Z,103746.69
2023-02-11T21:03:56.442Z,103752.00
2023-02-11T21:06:26.011Z,103757.34
2023-02-11T21:08:53.909Z,103754.66
2023-02-11T21:11:20.636Z,103763.53
2023-02-11T21:13:48.661Z,103766.16
2023-02-11T21:16:20.317Z,103768.78
2023-02-11T21:18:47.496Z,103773.19
2023-02-11T21:21:13.969Z,103776.75
2023-02-11T21:23:40.600Z,103783.91
2023-02-11T21:26:08.258Z,103782.13
2023-02-11T21:28:35.710Z,103775.84
2023-02-11T21:31:03.526Z,103780.22
2023-02-11T21:33:33.564Z,103779.34
2023-02-11T21:36:02.811Z,103781.16
2023-02-11T21:38:29.963Z,103787.38
2023-02-11T21:41:03.359Z,103790.03
2023-02-11T21:43:29.747Z,103789.09
2023-02-11T21:45:56.435Z,103795.38
2023-02-11T21:48:23.886Z,103804.28
2023-02-11T21:50:50.335Z,103797.09
2023-02-11T21:53:17.452Z,103801.53
2023-02-11T21:55:43.958Z,103800.63
2023-02-11T21:58:12.626Z,103797.03
2023-02-11T22:00:39.761Z,103808.50
2023-02-11T22:03:06.328Z,103809.31
2023-02-11T22:05:32.709Z,103811.03
2023-02-11T22:07:59.063Z,103808.34
2023-02-11T22:10:25.503Z,103813.63
2023-02-11T22:12:52.066Z,103808.22
2023-02-11T22:15:18.613Z,103817.00
2023-02-11T22:17:45.064Z,103817.06
2023-02-11T22:20:11.914Z,103814.44
2023-02-11T22:22:38.320Z,103813.47
2023-02-11T22:25:05.022Z,103816.09
2023-02-11T22:27:31.481Z,103815.31
2023-02-11T22:29:57.870Z,103817.97
2023-02-11T22:32:24.260Z,103825.09
2023-02-11T22:34:53.220Z,103823.34
2023-02-11T22:37:19.950Z,103821.50
2023-02-11T22:39:46.535Z,103815.22
2023-02-11T22:42:12.938Z,103807.13
2023-02-11T22:44:39.344Z,103815.09
2023-02-11T22:47:05.804Z,103828.34
2023-02-11T22:49:35.590Z,103831.97
2023-02-11T22:52:02.135Z,103824.00
2023-02-11T22:54:28.640Z,103825.78
2023-02-11T22:56:55.387Z,103834.50
2023-02-11T22:59:22.094Z,103841.59
2023-02-11T23:01:49.133Z,103833.47
2023-02-11T23:04:17.009Z,103835.28
2023-02-11T23:06:43.942Z,103833.59
2023-02-11T23:09:12.405Z,103832.69
2023-02-11T23:11:40.413Z,103837.88
2023-02-11T23:14:08.629Z,103834.13
2023-02-11T23:16:35.542Z,103842.91
2023-02-11T23:19:05.028Z,103853.50
2023-02-11T23:21:33.987Z,103857.88
2023-02-11T23:24:03.478Z,103860.50
2023-02-11T23:26:30.069Z,103855.00
2023-02-11T23:28:58.675Z,103854.13
2023-02-11T23:31:28.087Z,103854.97
2023-02-11T23:33:55.026Z,103853.19
2023-02-11T23:36:22.115Z,103855.78
2023-02-11T23:38:49.135Z,103861.94
2023-02-11T23:41:16.621Z,103852.22
2023-02-11T23:43:43.685Z,103861.97
2023-02-11T23:46:11.827Z,103869.72
2023-02-11T23:48:40.285Z,103865.13
2023-02-11T23:51:07.464Z,103866.84
2023-02-11T23:53:33.908Z,103862.28
2023-02-11T23:56:00.310Z,103863.09
2023-02-11T23:58:26.719Z,103862.16
